Time;durP1;ratioP1;P1;durP2;ratioP2;P2;SDS_P1;SDS_P2;PMS_P1;PMS_P2;Temp;Humidity;BMP_temperature;BMP_pressure;BME280_temperature;BME280_humidity;BME280_pressure;Samples;Min_cycle;Max_cycle;Signal;HPM_P1;HPM_P2
2021/10/17 07:34:56;;;;;;;31.92;13.23;;;;;;;6.20;100.00;97366.25;5029924;27;20409;-75
2021/10/17 07:37:21;;;;;;;28.00;13.57;;;;;;;6.04;100.00;97371.06;5029017;28;20391;-76
2021/10/17 07:39:47;;;;;;;31.20;14.73;;;;;;;6.11;100.00;97366.09;5024371;28;20072;-76
2021/10/17 07:42:12;;;;;;;28.63;13.20;;;;;;;6.62;100.00;97370.63;5010698;28;20030;-76
2021/10/17 07:44:38;;;;;;;33.83;16.10;;;;;;;7.22;100.00;97362.53;5009361;28;20030;-76
2021/10/17 07:47:04;;;;;;;31.52;16.10;;;;;;;7.27;100.00;97365.09;5010690;28;20026;-75
2021/10/17 07:49:30;;;;;;;36.30;16.97;;;;;;;7.55;100.00;97365.84;5010613;28;20092;-76
2021/10/17 07:51:55;;;;;;;27.50;14.95;;;;;;;9.27;99.61;97367.81;5010545;28;20058;-76
2021/10/17 07:54:20;;;;;;;24.23;12.83;;;;;;;9.22;94.68;97365.25;5009194;28;20117;-76
2021/10/17 07:56:46;;;;;;;21.43;11.37;;;;;;;8.15;95.16;97377.97;5010580;28;20084;-76
2021/10/17 07:59:11;;;;;;;23.80;13.10;;;;;;;8.12;95.35;97377.78;5010470;28;20026;-76
2021/10/17 08:01:36;;;;;;;23.27;12.17;;;;;;;6.94;98.87;97383.25;5010257;28;20026;-75
2021/10/17 08:04:02;;;;;;;18.57;10.47;;;;;;;5.97;100.00;97388.66;5010711;28;20022;-76
2021/10/17 08:06:27;;;;;;;19.63;10.17;;;;;;;5.63;100.00;97386.94;5009045;28;20028;-76
2021/10/17 08:08:52;;;;;;;19.75;10.70;;;;;;;5.50;100.00;97395.69;5009023;28;20256;-76
2021/10/17 08:11:18;;;;;;;22.23;11.63;;;;;;;5.76;100.00;97401.53;5008847;28;20029;-75
2021/10/17 08:13:44;;;;;;;24.87;10.80;;;;;;;5.71;100.00;97399.72;5008790;28;20019;-76
2021/10/17 08:16:10;;;;;;;26.23;11.15;;;;;;;5.77;100.00;97395.88;5008764;28;20174;-76
2021/10/17 08:18:36;;;;;;;22.08;11.70;;;;;;;5.75;100.00;97391.91;5010141;28;20030;-75
2021/10/17 08:21:01;;;;;;;22.70;11.10;;;;;;;6.01;100.00;97400.41;5009938;28;20029;-76
2021/10/17 08:23:26;;;;;;;23.65;11.55;;;;;;;5.82;100.00;97403.88;5009958;28;20468;-76
2021/10/17 08:25:52;;;;;;;29.00;11.88;;;;;;;6.10;100.00;97395.97;5008715;28;20022;-76
2021/10/17 08:28:17;;;;;;;28.20;11.47;;;;;;;6.09;100.00;97403.25;5008673;28;20018;-75
2021/10/17 08:30:45;;;;;;;23.97;11.73;;;;;;;6.53;100.00;97396.63;5008523;28;20036;-76
2021/10/17 08:33:11;;;;;;;23.75;12.60;;;;;;;6.50;100.00;97397.22;5009597;28;20026;-75
2021/10/17 08:35:36;;;;;;;21.80;11.87;;;;;;;6.52;100.00;97398.53;5009738;28;20045;-76
2021/10/17 08:38:02;;;;;;;22.73;11.37;;;;;;;6.51;100.00;97398.81;5008359;28;20071;-75
2021/10/17 08:40:27;;;;;;;24.10;12.20;;;;;;;6.21;100.00;97403.59;5008332;28;20022;-75
2021/10/17 08:42:53;;;;;;;26.75;12.52;;;;;;;6.57;100.00;97403.00;5008355;28;20116;-76
2021/10/17 08:45:18;;;;;;;22.43;11.17;;;;;;;6.53;100.00;97405.50;5000809;28;20081;-75
2021/10/17 08:47:46;;;;;;;24.03;12.70;;;;;;;6.91;100.00;97408.03;4996479;28;20030;-76
2021/10/17 08:50:15;;;;;;;24.42;13.00;;;;;;;7.17;100.00;97400.31;4995020;28;20034;-75
2021/10/17 08:52:41;;;;;;;23.98;12.18;;;;;;;7.02;100.00;97398.72;4995083;28;20117;-76
2021/10/17 08:55:07;;;;;;;24.92;12.85;;;;;;;7.07;100.00;97406.69;4996439;28;20534;-76
2021/10/17 08:57:32;;;;;;;24.73;13.63;;;;;;;7.01;100.00;97400.59;4996199;28;20056;-76
2021/10/17 09:00:00;;;;;;;23.73;12.30;;;;;;;6.84;100.00;97403.06;4996529;28;20130;-76
2021/10/17 09:02:26;;;;;;;26.52;13.18;;;;;;;7.11;100.00;97399.59;4994850;28;20030;-76
2021/10/17 09:05:01;;;;;;;22.80;12.43;;;;;;;7.52;100.00;97404.19;4996274;28;20029;-76
2021/10/17 09:07:27;;;;;;;26.43;12.17;;;;;;;7.62;100.00;97403.97;4996217;28;20105;-76
2021/10/17 09:10:14;;;;;;;23.27;12.50;;;;;;;7.67;100.00;97404.66;4996165;28;20380;-76
2021/10/17 09:12:44;;;;;;;22.20;12.38;;;;;;;7.29;100.00;97397.91;4994742;28;20034;-76
2021/10/17 09:15:19;;;;;;;24.52;12.60;;;;;;;7.70;100.00;97398.66;4995181;28;20038;-76
2021/10/17 09:18:22;;;;;;;25.00;12.68;;;;;;;9.26;97.11;97392.44;4994652;28;20030;-76
2021/10/17 09:20:47;;;;;;;21.53;11.27;;;;;;;9.80;93.07;97389.22;4994563;28;20026;-76
2021/10/17 09:23:30;;;;;;;23.57;11.93;;;;;;;9.66;90.86;97385.09;4995806;28;20126;-76
2021/10/17 09:25:58;;;;;;;19.83;11.80;;;;;;;9.43;90.73;97389.81;4995908;28;20272;-75
2021/10/17 09:28:26;;;;;;;18.67;11.63;;;;;;;9.48;90.46;97388.84;5010772;28;20117;-76
2021/10/17 09:30:59;;;;;;;20.60;11.88;;;;;;;8.64;92.14;97387.06;4994385;28;20450;-76
2021/10/17 09:33:25;;;;;;;21.45;12.52;;;;;;;8.93;92.32;97390.09;4994390;28;20447;-76
2021/10/17 09:35:51;;;;;;;23.13;12.27;;;;;;;8.92;92.47;97385.78;5010719;28;20104;-76
2021/10/17 09:38:18;;;;;;;20.60;12.27;;;;;;;8.97;91.45;97385.66;4994284;28;20018;-76
2021/10/17 09:40:46;;;;;;;23.00;12.88;;;;;;;9.59;90.93;97382.06;4994137;28;20076;-76
2021/10/17 09:43:24;;;;;;;21.73;12.50;;;;;;;8.80;91.06;97387.47;4994196;28;20106;-76
2021/10/17 09:45:50;;;;;;;21.25;12.05;;;;;;;9.16;91.68;97390.03;4994243;28;20034;-75
2021/10/17 09:48:29;;;;;;;22.80;12.73;;;;;;;8.61;94.56;97384.97;4995320;28;20034;-75
2021/10/17 09:51:05;;;;;;;21.02;11.68;;;;;;;7.95;97.13;97389.25;4993951;28;20073;-76
2021/10/17 09:53:47;;;;;;;22.60;12.60;;;;;;;8.10;98.33;97388.09;4993999;28;20045;-75
2021/10/17 09:56:29;;;;;;;22.85;13.23;;;;;;;9.78;96.12;97377.16;4993201;28;20081;-76
2021/10/17 09:58:56;;;;;;;22.05;12.25;;;;;;;8.12;96.96;97383.97;4994905;28;20030;-76
2021/10/17 10:01:25;;;;;;;23.40;12.57;;;;;;;8.61;95.89;97374.97;4993710;28;20489;-75
2021/10/17 10:03:52;;;;;;;20.60;11.38;;;;;;;8.99;94.03;97371.84;4995081;28;20018;-75
2021/10/17 10:06:18;;;;;;;23.73;13.03;;;;;;;9.81;90.15;97357.56;4995071;28;20108;-76
2021/10/17 10:08:44;;;;;;;20.77;11.90;;;;;;;8.94;92.59;97374.69;4994990;28;20073;-76
2021/10/17 10:11:10;;;;;;;21.00;12.30;;;;;;;9.29;93.55;97379.13;5009874;28;20038;-75
2021/10/17 10:13:36;;;;;;;20.53;12.07;;;;;;;8.86;95.71;97376.25;4993528;28;20033;-76
2021/10/17 10:16:02;;;;;;;21.10;12.20;;;;;;;8.64;96.23;97370.88;4993599;28;20480;-76
2021/10/17 10:18:31;;;;;;;22.17;12.32;;;;;;;8.91;96.02;97376.09;4993424;28;20033;-76
2021/10/17 10:20:56;;;;;;;21.15;12.00;;;;;;;9.18;95.27;97382.38;4994625;28;20053;-75
2021/10/17 10:23:22;;;;;;;20.63;11.73;;;;;;;8.62;96.36;97375.78;4993462;28;20527;-76
2021/10/17 10:25:52;;;;;;;22.58;12.63;;;;;;;8.22;97.53;97383.75;4993462;28;20030;-76
2021/10/17 10:28:19;;;;;;;21.58;12.23;;;;;;;8.53;98.34;97383.00;4994575;28;20026;-76
2021/10/17 10:30:45;;;;;;;22.23;12.37;;;;;;;8.32;98.89;97385.41;4993202;28;20026;-76
2021/10/17 10:33:17;;;;;;;22.17;12.15;;;;;;;8.46;98.99;97377.25;4994352;28;20034;-76
2021/10/17 10:36:04;;;;;;;22.63;12.82;;;;;;;7.76;100.00;97383.19;4994472;28;20034;-75
2021/10/17 10:38:52;;;;;;;24.15;13.05;;;;;;;8.35;100.00;97384.00;4994531;28;20030;-76
2021/10/17 10:41:23;;;;;;;22.30;12.47;;;;;;;7.89;100.00;97385.03;4992998;28;20461;-76
2021/10/17 10:43:49;;;;;;;25.88;13.57;;;;;;;7.62;100.00;97383.22;4993139;28;20475;-75
2021/10/17 10:46:30;;;;;;;23.10;12.57;;;;;;;7.94;100.00;97371.47;4994448;28;20396;-75
2021/10/17 10:48:56;;;;;;;24.88;12.88;;;;;;;7.80;100.00;97374.22;4993003;28;20022;-76
2021/10/17 10:51:47;;;;;;;24.60;13.23;;;;;;;8.04;100.00;97379.31;4992805;28;20028;-76
2021/10/17 10:54:25;;;;;;;23.67;12.93;;;;;;;7.98;100.00;97380.53;4988384;28;20392;-76
2021/10/17 10:56:56;;;;;;;22.58;12.57;;;;;;;7.85;100.00;97386.75;4992809;28;20065;-75
2021/10/17 10:59:25;;;;;;;26.00;14.20;;;;;;;7.52;100.00;97385.34;4992849;28;20120;-75
2021/10/17 11:01:55;;;;;;;24.60;13.63;;;;;;;7.91;100.00;97380.16;4994033;28;20033;-76
2021/10/17 11:04:41;;;;;;;25.43;13.77;;;;;;;8.32;100.00;97393.50;4994047;28;20472;-75
2021/10/17 11:07:31;;;;;;;23.17;13.35;;;;;;;7.98;100.00;97382.41;4992756;28;20025;-75
2021/10/17 11:10:22;;;;;;;25.63;13.02;;;;;;;7.76;100.00;97392.06;4992772;28;20031;-76
2021/10/17 11:12:50;;;;;;;24.13;12.95;;;;;;;7.95;100.00;97386.53;4992581;28;20073;-76
2021/10/17 11:15:20;;;;;;;25.02;12.98;;;;;;;7.99;100.00;97386.72;4992610;28;20042;-76
2021/10/17 11:17:57;;;;;;;25.43;13.17;;;;;;;8.12;100.00;97385.88;4992684;28;20073;-76
2021/10/17 11:20:28;;;;;;;24.70;13.77;;;;;;;8.56;100.00;97372.41;4992442;28;20068;-76
2021/10/17 11:22:54;;;;;;;23.70;12.30;;;;;;;8.10;100.00;97378.06;4993842;28;20109;-76
2021/10/17 11:25:21;;;;;;;25.05;13.30;;;;;;;8.15;100.00;97379.88;4992402;28;20034;-76
2021/10/17 11:31:14;;;;;;;24.97;12.53;;;;;;;7.92;100.00;97370.97;4993843;28;20392;-76
2021/10/17 11:33:42;;;;;;;23.67;12.55;;;;;;;8.33;100.00;97359.25;4993806;28;20496;-76
2021/10/17 11:36:09;;;;;;;22.40;12.75;;;;;;;8.20;100.00;97366.28;4993742;28;20451;-76
2021/10/17 11:38:35;;;;;;;24.92;12.48;;;;;;;8.51;100.00;97361.75;4993895;28;20468;-76
2021/10/17 11:41:06;;;;;;;23.53;11.80;;;;;;;8.37;100.00;97357.53;4993449;28;20022;-76
2021/10/17 11:43:38;;;;;;;23.33;12.80;;;;;;;7.92;100.00;97362.88;5008677;28;20030;-76
2021/10/17 11:46:06;;;;;;;24.55;13.32;;;;;;;8.35;100.00;97362.44;4993598;28;20034;-76
2021/10/17 11:48:33;;;;;;;23.37;12.90;;;;;;;8.22;100.00;97355.97;4992312;28;20019;-76
2021/10/17 11:51:03;;;;;;;22.38;11.95;;;;;;;8.18;100.00;97358.47;4992169;28;20444;-77
2021/10/17 11:53:29;;;;;;;22.85;11.90;;;;;;;8.45;100.00;97356.81;4992181;28;20472;-76
2021/10/17 11:55:54;;;;;;;25.35;13.10;;;;;;;8.17;100.00;97356.13;4992235;28;20080;-76
2021/10/17 11:58:22;;;;;;;20.93;10.77;;;;;;;8.18;100.00;97352.28;4993500;28;20085;-76
2021/10/17 12:00:49;;;;;;;25.42;12.52;;;;;;;8.06;100.00;97355.53;4992096;28;20496;-77
2021/10/17 12:03:23;;;;;;;24.60;13.03;;;;;;;8.07;100.00;97348.25;4992233;28;20053;-76
2021/10/17 12:05:50;;;;;;;23.83;13.05;;;;;;;8.45;100.00;97337.94;4993425;28;20112;-76
2021/10/17 12:08:30;;;;;;;24.52;12.60;;;;;;;8.46;100.00;97347.59;4993373;28;20049;-76
2021/10/17 12:11:01;;;;;;;23.17;11.95;;;;;;;8.25;100.00;97339.97;4993254;28;20018;-77
2021/10/17 12:13:28;;;;;;;23.60;12.45;;;;;;;8.31;100.00;97339.91;4991987;28;20098;-77
2021/10/17 12:16:02;;;;;;;25.67;12.73;;;;;;;8.48;100.00;97334.59;4992042;28;20037;-76
2021/10/17 12:18:29;;;;;;;25.30;12.73;;;;;;;8.44;100.00;97336.31;4992029;28;20022;-76
2021/10/17 12:20:55;;;;;;;26.35;12.88;;;;;;;8.59;100.00;97334.03;4995410;28;20040;-76
2021/10/17 12:23:21;;;;;;;22.23;12.37;;;;;;;8.49;100.00;97337.00;4995691;28;20392;-76
2021/10/17 12:25:46;;;;;;;23.70;12.15;;;;;;;8.33;100.00;97332.28;4995613;28;20030;-76
2021/10/17 12:28:16;;;;;;;24.07;12.03;;;;;;;8.43;100.00;97335.53;4995563;28;20030;-76
2021/10/17 12:30:41;;;;;;;26.83;13.60;;;;;;;8.51;100.00;97334.78;4995405;28;20034;-76
2021/10/17 12:33:11;;;;;;;22.80;12.80;;;;;;;8.45;100.00;97332.53;4995398;28;20121;-76
2021/10/17 12:35:38;;;;;;;23.85;12.52;;;;;;;8.33;100.00;97332.28;4996790;28;20026;-76
2021/10/17 12:38:15;;;;;;;26.25;12.88;;;;;;;8.44;100.00;97330.94;4995502;28;20034;-76
2021/10/17 12:40:55;;;;;;;20.57;10.03;;;;;;;8.21;100.00;97330.91;4995392;28;20022;-76
2021/10/17 12:43:29;;;;;;;26.20;12.50;;;;;;;8.45;100.00;97327.94;4996616;28;20025;-76
2021/10/17 12:45:55;;;;;;;25.33;12.38;;;;;;;8.41;100.00;97335.03;4995333;28;20441;-76
2021/10/17 12:48:35;;;;;;;23.55;11.32;;;;;;;8.28;100.00;97325.09;4995313;28;20030;-77
2021/10/17 12:51:00;;;;;;;25.50;12.27;;;;;;;8.37;100.00;97325.97;4995069;28;20031;-76
2021/10/17 12:53:27;;;;;;;23.57;12.33;;;;;;;8.46;100.00;97332.19;4996389;28;20222;-77
2021/10/17 12:55:56;;;;;;;26.52;12.88;;;;;;;8.27;100.00;97321.59;4996473;28;20041;-76
2021/10/17 12:58:25;;;;;;;23.30;11.52;;;;;;;8.29;100.00;97326.69;4995018;28;20034;-76
2021/10/17 13:01:03;;;;;;;24.10;12.50;;;;;;;8.35;100.00;97327.38;4994921;28;20080;-76
2021/10/17 13:03:28;;;;;;;25.92;12.30;;;;;;;8.36;100.00;97331.69;4996588;28;20023;-76
2021/10/17 13:05:58;;;;;;;25.10;11.83;;;;;;;8.23;100.00;97328.72;4996201;28;20026;-76
2021/10/17 13:08:26;;;;;;;25.52;11.60;;;;;;;8.21;100.00;97325.53;4996212;28;20034;-76
2021/10/17 13:11:05;;;;;;;23.77;11.15;;;;;;;8.22;100.00;97327.13;4994694;28;20485;-77
2021/10/17 13:13:32;;;;;;;25.60;12.00;;;;;;;8.41;100.00;97324.25;4996290;28;20027;-76
2021/10/17 13:15:57;;;;;;;26.00;12.77;;;;;;;8.57;100.00;97330.06;4994735;28;20544;-76
2021/10/17 13:18:23;;;;;;;26.13;12.53;;;;;;;8.75;100.00;97323.63;4994739;28;20128;-76
2021/10/17 13:20:48;;;;;;;24.33;12.38;;;;;;;8.33;100.00;97319.59;4994573;28;20026;-76
2021/10/17 13:23:17;;;;;;;27.27;12.80;;;;;;;8.12;100.00;97319.28;4994679;28;20073;-76
2021/10/17 13:25:45;;;;;;;26.30;12.05;;;;;;;8.21;100.00;97325.53;4995808;28;20034;-76
2021/10/17 13:28:11;;;;;;;23.80;11.48;;;;;;;8.20;100.00;97318.53;4994531;28;20429;-76
2021/10/17 13:30:36;;;;;;;24.97;11.83;;;;;;;8.24;100.00;97322.19;4995529;28;20108;-76
2021/10/17 13:33:03;;;;;;;25.92;12.25;;;;;;;8.41;100.00;97320.75;4995531;28;20053;-76
2021/10/17 13:35:29;;;;;;;26.75;12.57;;;;;;;8.31;100.00;97324.53;4994410;28;20223;-75
2021/10/17 13:37:56;;;;;;;25.65;12.63;;;;;;;8.20;100.00;97323.13;4995725;28;20031;-76
2021/10/17 13:40:22;;;;;;;25.98;12.18;;;;;;;8.43;100.00;97321.25;4995404;28;20026;-76
2021/10/17 13:42:58;;;;;;;24.00;10.43;;;;;;;8.23;100.00;97325.22;4994294;28;20030;-77
2021/10/17 13:45:26;;;;;;;26.05;12.27;;;;;;;8.21;100.00;97322.03;4975999;28;20033;-76
2021/10/17 13:47:56;;;;;;;23.08;10.65;;;;;;;8.24;100.00;97326.81;4993147;28;20440;-77
2021/10/17 13:50:22;;;;;;;26.13;12.20;;;;;;;8.44;100.00;97325.53;4994088;28;20061;-77
2021/10/17 13:52:47;;;;;;;23.40;11.35;;;;;;;8.21;100.00;97320.13;4994002;28;20472;-77
2021/10/17 13:55:14;;;;;;;26.37;12.50;;;;;;;8.57;100.00;97320.06;4982506;28;20042;-77
2021/10/17 13:57:39;;;;;;;26.27;12.70;;;;;;;8.34;100.00;97321.19;4974426;28;20505;-77
2021/10/17 14:00:08;;;;;;;26.00;11.98;;;;;;;8.67;100.00;97326.31;4975357;28;20027;-77
2021/10/17 14:02:33;;;;;;;24.23;11.43;;;;;;;8.39;100.00;97333.72;4974428;28;20122;-76
2021/10/17 14:04:58;;;;;;;24.80;11.50;;;;;;;8.35;100.00;97335.47;5006905;28;20058;-77
2021/10/17 14:07:24;;;;;;;23.80;11.43;;;;;;;8.23;100.00;97328.72;4975727;28;20030;-77
2021/10/17 14:09:50;;;;;;;25.27;12.13;;;;;;;8.45;100.00;97333.31;4975954;28;20034;-76
2021/10/17 14:12:16;;;;;;;25.42;12.05;;;;;;;8.47;100.00;97336.50;4974210;28;20082;-76
2021/10/17 14:14:42;;;;;;;22.17;11.10;;;;;;;8.75;100.00;97339.81;4986685;28;20073;-76
2021/10/17 14:17:07;;;;;;;23.43;10.73;;;;;;;8.67;100.00;97335.16;4993631;28;20023;-77
2021/10/17 14:19:32;;;;;;;22.50;10.80;;;;;;;8.63;99.89;97343.09;4994842;28;20022;-77
2021/10/17 14:21:57;;;;;;;25.43;12.47;;;;;;;8.85;99.83;97344.16;4994600;28;20175;-77
2021/10/17 14:24:23;;;;;;;25.97;12.77;;;;;;;8.54;100.00;97339.53;4993529;28;20030;-77
2021/10/17 14:26:53;;;;;;;23.80;11.57;;;;;;;8.44;100.00;97344.41;4994736;28;20030;-76
2021/10/17 14:29:19;;;;;;;23.30;11.25;;;;;;;8.39;100.00;97345.31;4994898;28;20526;-77
2021/10/17 14:31:44;;;;;;;24.60;11.73;;;;;;;8.47;100.00;97339.19;4993260;28;20026;-77
2021/10/17 14:34:10;;;;;;;24.17;11.82;;;;;;;8.49;100.00;97350.47;4993155;28;20280;-76
2021/10/17 14:36:35;;;;;;;26.97;12.23;;;;;;;8.71;100.00;97336.16;4993242;28;20180;-76
2021/10/17 14:39:01;;;;;;;24.40;11.53;;;;;;;8.59;100.00;97341.34;4994733;28;20026;-76
2021/10/17 14:41:27;;;;;;;26.50;12.10;;;;;;;8.54;100.00;97336.06;5009418;28;20105;-76
2021/10/17 14:43:54;;;;;;;28.07;12.40;;;;;;;8.61;100.00;97339.91;5009041;28;20057;-76
2021/10/17 14:46:19;;;;;;;24.63;12.25;;;;;;;8.62;100.00;97341.50;4993109;28;20498;-76
2021/10/17 14:48:44;;;;;;;25.03;11.93;;;;;;;8.55;100.00;97341.13;4994325;28;20122;-76
2021/10/17 14:51:10;;;;;;;24.80;11.23;;;;;;;8.65;100.00;97332.00;4994178;28;20030;-76
2021/10/17 14:53:35;;;;;;;25.67;12.60;;;;;;;8.67;100.00;97327.06;4992941;28;20416;-77
2021/10/17 14:56:01;;;;;;;24.07;11.80;;;;;;;8.42;100.00;97333.94;4992973;28;20117;-77
2021/10/17 14:58:28;;;;;;;25.83;11.40;;;;;;;8.47;100.00;97325.69;5002201;28;20026;-76
2021/10/17 15:00:53;;;;;;;25.15;11.88;;;;;;;8.40;100.00;97329.94;4989434;28;20106;-76
2021/10/17 15:03:19;;;;;;;26.17;12.53;;;;;;;8.32;100.00;97339.56;4989366;28;20062;-76
2021/10/17 15:05:44;;;;;;;27.58;13.23;;;;;;;8.29;100.00;97331.28;4989441;28;20034;-77
2021/10/17 15:08:09;;;;;;;26.90;13.35;;;;;;;8.23;100.00;97326.03;4989420;28;20031;-77
2021/10/17 15:10:36;;;;;;;27.13;12.37;;;;;;;8.37;100.00;97331.38;4989254;28;20022;-77
2021/10/17 15:13:01;;;;;;;26.52;12.77;;;;;;;8.29;100.00;97332.06;4974342;28;20045;-77
2021/10/17 15:15:28;;;;;;;24.90;12.30;;;;;;;8.30;100.00;97327.50;4989346;28;20043;-77
2021/10/17 15:17:55;;;;;;;25.08;12.57;;;;;;;8.15;100.00;97324.06;4974332;28;20023;-77
2021/10/17 15:20:20;;;;;;;28.40;12.40;;;;;;;8.19;100.00;97335.00;4989122;28;20041;-76
2021/10/17 15:22:46;;;;;;;25.63;12.20;;;;;;;8.15;100.00;97334.03;4989156;28;20401;-77
2021/10/17 15:25:12;;;;;;;27.53;12.63;;;;;;;8.15;100.00;97326.75;4989272;28;20031;-76
2021/10/17 15:27:38;;;;;;;25.65;12.35;;;;;;;8.13;100.00;97334.34;4974303;28;20097;-76
2021/10/17 15:30:05;;;;;;;24.20;11.57;;;;;;;8.00;100.00;97335.22;4974120;28;20035;-78
2021/10/17 15:32:31;;;;;;;27.60;11.80;;;;;;;8.13;100.00;97337.03;4988861;28;20027;-77
2021/10/17 15:34:57;;;;;;;25.87;11.90;;;;;;;8.04;100.00;97336.19;4974254;28;20031;-77
2021/10/17 15:37:23;;;;;;;26.05;12.23;;;;;;;8.06;100.00;97346.66;4974193;28;20445;-76
2021/10/17 15:39:49;;;;;;;25.83;12.65;;;;;;;8.10;100.00;97345.72;4989076;28;20089;-76
2021/10/17 15:42:14;;;;;;;26.60;12.47;;;;;;;7.96;100.00;97349.59;4988941;28;20027;-77
2021/10/17 15:44:40;;;;;;;27.07;13.20;;;;;;;8.03;100.00;97348.06;4989085;28;20019;-77
2021/10/17 15:47:05;;;;;;;29.45;12.45;;;;;;;8.07;100.00;97348.25;4974095;28;20097;-76
2021/10/17 15:49:32;;;;;;;30.33;13.40;;;;;;;8.03;100.00;97341.91;4974365;28;20085;-76
2021/10/17 15:51:58;;;;;;;26.33;12.27;;;;;;;8.01;100.00;97344.88;4973986;28;20158;-76
2021/10/17 15:54:26;;;;;;;26.33;13.03;;;;;;;8.03;100.00;97348.06;4988776;28;20026;-76
2021/10/17 15:56:51;;;;;;;31.65;13.35;;;;;;;7.76;100.00;97342.75;4977907;28;20388;-76
2021/10/17 15:59:16;;;;;;;31.87;13.40;;;;;;;7.75;100.00;97347.34;4992851;28;20022;-77
2021/10/17 16:01:42;;;;;;;29.20;12.53;;;;;;;7.81;100.00;97351.56;4992722;28;20453;-76
2021/10/17 16:04:08;;;;;;;28.63;12.60;;;;;;;7.80;100.00;97357.25;4977963;28;20034;-76
2021/10/17 16:06:34;;;;;;;34.07;13.40;;;;;;;7.82;100.00;97357.72;4992774;28;20077;-76
2021/10/17 16:09:00;;;;;;;29.58;12.65;;;;;;;7.81;100.00;97362.34;4992687;28;20022;-76
2021/10/17 16:11:26;;;;;;;28.48;12.75;;;;;;;7.72;100.00;97368.72;4977584;28;20031;-77
2021/10/17 16:13:52;;;;;;;30.45;12.70;;;;;;;7.70;100.00;97362.84;4992572;28;20023;-77
2021/10/17 16:16:17;;;;;;;29.20;12.13;;;;;;;7.60;100.00;97365.78;4994888;28;20137;-76
2021/10/17 16:18:43;;;;;;;33.47;14.20;;;;;;;7.60;100.00;97371.94;4995773;28;20455;-76
2021/10/17 16:21:09;;;;;;;33.73;13.60;;;;;;;7.62;100.00;97377.03;4995624;28;20022;-76
2021/10/17 16:23:35;;;;;;;34.10;13.45;;;;;;;7.62;100.00;97377.81;4995734;28;20021;-76
2021/10/17 16:26:01;;;;;;;35.10;13.27;;;;;;;7.63;100.00;97381.31;4995691;28;20044;-77
2021/10/17 16:28:29;;;;;;;35.10;13.77;;;;;;;7.57;100.00;97379.84;4996847;28;20101;-76
2021/10/17 16:31:03;;;;;;;32.85;13.95;;;;;;;7.67;100.00;97382.31;4995410;28;20073;-76
2021/10/17 16:33:31;;;;;;;32.45;12.73;;;;;;;7.48;100.00;97377.03;4995377;28;20475;-76
2021/10/17 16:35:56;;;;;;;31.98;13.00;;;;;;;7.56;100.00;97378.22;5011915;28;20030;-77
2021/10/17 16:38:21;;;;;;;37.33;14.40;;;;;;;7.71;100.00;97386.00;4995436;28;20048;-77
2021/10/17 16:40:48;;;;;;;33.07;13.97;;;;;;;7.58;100.00;97384.13;4995263;28;20029;-76
2021/10/17 16:43:14;;;;;;;36.40;13.65;;;;;;;7.61;100.00;97388.91;4996594;28;20322;-76
2021/10/17 16:45:40;;;;;;;31.88;12.90;;;;;;;7.62;100.00;97393.97;4995371;28;20038;-76
2021/10/17 16:48:06;;;;;;;33.92;14.38;;;;;;;7.66;100.00;97391.50;4996550;28;20026;-76
2021/10/17 16:50:31;;;;;;;35.90;13.73;;;;;;;7.65;100.00;97393.38;4995130;28;20121;-76
2021/10/17 16:52:56;;;;;;;37.22;14.50;;;;;;;7.58;100.00;97400.28;4995086;28;20109;-77
2021/10/17 16:55:27;;;;;;;38.58;15.15;;;;;;;7.50;100.00;97401.00;4995192;28;20399;-76
2021/10/17 16:57:52;;;;;;;38.93;14.60;;;;;;;7.55;100.00;97408.97;4995126;28;20445;-76
2021/10/17 17:00:18;;;;;;;45.78;17.20;;;;;;;7.50;100.00;97409.06;4994887;28;20022;-76
2021/10/17 17:02:43;;;;;;;42.00;16.73;;;;;;;7.65;100.00;97417.63;5011296;28;20022;-76
2021/10/17 17:05:08;;;;;;;42.80;15.10;;;;;;;7.54;100.00;97418.94;4994918;28;20076;-76
2021/10/17 17:07:34;;;;;;;39.43;15.20;;;;;;;7.56;100.00;97426.72;4995794;28;20058;-76
2021/10/17 17:09:59;;;;;;;39.67;15.37;;;;;;;7.47;100.00;97426.63;4994905;28;20026;-77
2021/10/17 17:12:24;;;;;;;41.23;15.63;;;;;;;7.54;100.00;97426.22;4995071;28;20030;-76
2021/10/17 17:14:49;;;;;;;44.43;16.40;;;;;;;7.58;100.00;97433.41;4996000;28;20069;-76
2021/10/17 17:17:15;;;;;;;45.40;16.27;;;;;;;7.60;100.00;97439.28;4995975;28;20278;-76
2021/10/17 17:19:40;;;;;;;40.47;15.07;;;;;;;7.59;100.00;97432.31;4995972;28;20030;-76
2021/10/17 17:22:35;;;;;;;47.03;16.53;;;;;;;7.56;100.00;97432.09;4994233;28;20034;-74
2021/10/17 17:25:00;;;;;;;44.42;15.88;;;;;;;7.58;100.00;97435.31;4995862;28;20034;-75
2021/10/17 17:27:26;;;;;;;42.50;16.47;;;;;;;7.56;100.00;97430.22;5011020;28;20037;-74
2021/10/17 17:29:51;;;;;;;48.22;16.25;;;;;;;7.53;100.00;97435.41;5010763;28;20141;-75
2021/10/17 17:32:18;;;;;;;42.07;15.93;;;;;;;7.60;100.00;97441.19;4995643;28;20035;-74
2021/10/17 17:34:44;;;;;;;42.83;16.23;;;;;;;7.55;100.00;97436.69;4994425;28;20029;-75
2021/10/17 17:37:10;;;;;;;41.83;15.83;;;;;;;7.44;100.00;97444.19;4995644;28;20030;-75
2021/10/17 17:39:36;;;;;;;45.47;15.70;;;;;;;7.42;100.00;97450.97;4995498;28;20054;-74
2021/10/17 17:42:01;;;;;;;46.93;16.40;;;;;;;7.51;100.00;97453.75;4995899;28;20120;-74
2021/10/17 17:44:27;;;;;;;44.83;16.03;;;;;;;7.42;100.00;97445.56;4995926;28;20027;-74
2021/10/17 17:46:52;;;;;;;46.13;16.85;;;;;;;7.44;100.00;97449.56;5010529;28;20268;-74
2021/10/17 17:49:17;;;;;;;46.30;15.23;;;;;;;7.48;100.00;97455.94;4994884;28;20117;-76
2021/10/17 17:51:43;;;;;;;47.67;16.67;;;;;;;7.41;100.00;97452.06;4992623;28;20385;-76
2021/10/17 17:54:08;;;;;;;44.83;17.03;;;;;;;7.40;100.00;97450.47;4993818;28;20072;-75
2021/10/17 17:56:33;;;;;;;40.77;15.13;;;;;;;7.36;100.00;97452.97;4995221;28;20124;-76
2021/10/17 17:58:59;;;;;;;41.97;15.98;;;;;;;7.34;100.00;97454.34;4994061;28;20045;-76
2021/10/17 18:01:24;;;;;;;44.53;15.50;;;;;;;7.29;100.00;97459.84;4975577;28;20027;-76
2021/10/17 18:03:56;;;;;;;40.57;14.87;;;;;;;7.25;100.00;97467.69;4990534;28;20030;-77
2021/10/17 18:06:21;;;;;;;42.65;15.70;;;;;;;7.29;100.00;97460.63;4990543;28;20019;-77
2021/10/17 18:08:46;;;;;;;43.33;15.13;;;;;;;7.39;100.00;97467.69;4991976;28;20479;-76
2021/10/17 18:11:12;;;;;;;39.97;14.53;;;;;;;7.34;100.00;97459.72;4994984;28;20037;-76
2021/10/17 18:13:37;;;;;;;41.60;14.53;;;;;;;7.33;100.00;97461.63;4992708;28;20527;-76
2021/10/17 18:16:03;;;;;;;43.20;14.90;;;;;;;7.46;100.00;97463.53;4988511;28;20041;-76
2021/10/17 18:18:28;;;;;;;40.85;15.05;;;;;;;7.44;100.00;97464.94;4992471;28;20022;-75
2021/10/17 18:20:53;;;;;;;42.08;15.57;;;;;;;7.41;100.00;97468.22;4993096;28;20034;-76
2021/10/17 18:23:18;;;;;;;38.23;14.27;;;;;;;7.45;100.00;97469.22;4993374;28;20408;-76
2021/10/17 18:25:44;;;;;;;40.27;14.53;;;;;;;7.47;100.00;97470.50;4993139;28;20030;-76
2021/10/17 18:28:24;;;;;;;45.73;15.17;;;;;;;7.47;100.00;97464.31;4986607;28;20022;-78
2021/10/17 18:30:52;;;;;;;38.67;14.82;;;;;;;7.32;100.00;97462.72;4984260;28;20421;-79
2021/10/17 18:33:18;;;;;;;41.05;14.63;;;;;;;7.35;100.00;97458.63;4990326;28;20034;-78
2021/10/17 18:35:43;;;;;;;40.08;15.32;;;;;;;7.36;100.00;97462.94;5009090;28;20034;-78
2021/10/17 18:38:09;;;;;;;43.10;14.23;;;;;;;7.29;100.00;97471.41;4994170;28;20108;-78
2021/10/17 18:40:34;;;;;;;38.87;14.03;;;;;;;7.31;100.00;97461.16;4978715;28;20027;-78
2021/10/17 18:42:59;;;;;;;39.43;13.90;;;;;;;7.34;100.00;97470.50;5010149;28;20366;-78
2021/10/17 18:45:25;;;;;;;40.07;14.97;;;;;;;7.33;100.00;97468.91;4982497;28;20031;-78
2021/10/17 18:47:50;;;;;;;37.42;14.57;;;;;;;7.39;100.00;97475.78;4973298;28;20094;-79
2021/10/17 18:50:16;;;;;;;32.43;13.03;;;;;;;7.26;100.00;97473.88;4983645;28;20481;-73
2021/10/17 18:52:47;;;;;;;31.73;13.00;;;;;;;7.21;100.00;97476.66;4990382;28;20034;-74
2021/10/17 18:55:13;;;;;;;33.95;13.07;;;;;;;7.17;100.00;97486.44;4984629;28;20015;-73
2021/10/17 18:57:38;;;;;;;34.40;13.03;;;;;;;7.18;100.00;97479.94;4992045;28;20026;-75
2021/10/17 19:00:09;;;;;;;32.25;12.20;;;;;;;7.12;100.00;97484.63;4981885;28;20036;-74